sensor_id;sensor_type;location;lat;lon;timestamp;P1;durP1;ratioP1;P2;durP2;ratioP2
60869;SDS011;46710;43.680;4.132;2022-08-19T00:01:30;0.93;;;0.93;;
60869;SDS011;46710;43.680;4.132;2022-08-19T00:04:00;1.37;;;1.27;;
60869;SDS011;46710;43.680;4.132;2022-08-19T00:06:27;0.90;;;0.90;;
60869;SDS011;46710;43.680;4.132;2022-08-19T00:08:53;1.20;;;1.10;;
60869;SDS011;46710;43.680;4.132;2022-08-19T00:11:20;1.23;;;0.93;;
60869;SDS011;46710;43.680;4.132;2022-08-19T00:13:46;1.10;;;1.00;;
60869;SDS011;46710;43.680;4.132;2022-08-19T00:16:13;1.10;;;1.00;;
60869;SDS011;46710;43.680;4.132;2022-08-19T00:18:40;1.20;;;1.00;;
60869;SDS011;46710;43.680;4.132;2022-08-19T00:21:06;1.67;;;1.05;;
60869;SDS011;46710;43.680;4.132;2022-08-19T00:23:32;1.00;;;1.00;;
60869;SDS011;46710;43.680;4.132;2022-08-19T00:26:01;1.73;;;1.23;;
60869;SDS011;46710;43.680;4.132;2022-08-19T00:28:27;1.35;;;0.90;;
60869;SDS011;46710;43.680;4.132;2022-08-19T00:30:53;1.40;;;1.05;;
60869;SDS011;46710;43.680;4.132;2022-08-19T00:33:19;1.48;;;1.37;;
60869;SDS011;46710;43.680;4.132;2022-08-19T00:35:46;1.20;;;1.10;;
60869;SDS011;46710;43.680;4.132;2022-08-19T00:38:12;0.90;;;0.90;;
60869;SDS011;46710;43.680;4.132;2022-08-19T00:40:38;1.00;;;1.00;;
60869;SDS011;46710;43.680;4.132;2022-08-19T00:43:08;1.80;;;1.00;;
60869;SDS011;46710;43.680;4.132;2022-08-19T00:45:34;1.15;;;0.95;;
60869;SDS011;46710;43.680;4.132;2022-08-19T00:48:01;1.20;;;0.75;;
60869;SDS011;46710;43.680;4.132;2022-08-19T00:50:29;0.70;;;0.70;;
60869;SDS011;46710;43.680;4.132;2022-08-19T00:52:55;1.00;;;0.80;;
60869;SDS011;46710;43.680;4.132;2022-08-19T00:55:25;0.82;;;0.82;;
60869;SDS011;46710;43.680;4.132;2022-08-19T00:58:28;0.90;;;0.90;;
60869;SDS011;46710;43.680;4.132;2022-08-19T01:00:46;1.00;;;0.90;;
60869;SDS011;46710;43.680;4.132;2022-08-19T01:03:15;1.00;;;0.95;;
60869;SDS011;46710;43.680;4.132;2022-08-19T01:05:42;1.00;;;1.00;;
60869;SDS011;46710;43.680;4.132;2022-08-19T01:08:09;1.23;;;1.20;;
60869;SDS011;46710;43.680;4.132;2022-08-19T01:10:37;0.98;;;0.98;;
60869;SDS011;46710;43.680;4.132;2022-08-19T01:13:05;1.10;;;1.10;;
60869;SDS011;46710;43.680;4.132;2022-08-19T01:15:36;1.50;;;1.00;;
60869;SDS011;46710;43.680;4.132;2022-08-19T01:18:06;1.33;;;1.10;;
60869;SDS011;46710;43.680;4.132;2022-08-19T01:20:33;1.20;;;1.10;;
60869;SDS011;46710;43.680;4.132;2022-08-19T01:22:59;0.80;;;0.80;;
60869;SDS011;46710;43.680;4.132;2022-08-19T01:25:36;1.40;;;1.10;;
60869;SDS011;46710;43.680;4.132;2022-08-19T01:28:06;1.37;;;1.27;;
60869;SDS011;46710;43.680;4.132;2022-08-19T01:30:33;1.33;;;1.25;;
60869;SDS011;46710;43.680;4.132;2022-08-19T01:32:59;1.52;;;1.23;;
60869;SDS011;46710;43.680;4.132;2022-08-19T01:35:26;1.35;;;1.25;;
60869;SDS011;46710;43.680;4.132;2022-08-19T01:38:00;1.40;;;1.30;;
60869;SDS011;46710;43.680;4.132;2022-08-19T01:40:30;1.33;;;1.23;;
60869;SDS011;46710;43.680;4.132;2022-08-19T01:42:57;1.20;;;1.10;;
60869;SDS011;46710;43.680;4.132;2022-08-19T01:45:24;1.42;;;1.30;;
60869;SDS011;46710;43.680;4.132;2022-08-19T01:47:50;1.60;;;1.40;;
60869;SDS011;46710;43.680;4.132;2022-08-19T01:50:17;1.20;;;1.20;;
60869;SDS011;46710;43.680;4.132;2022-08-19T01:52:43;1.60;;;1.50;;
60869;SDS011;46710;43.680;4.132;2022-08-19T01:55:11;2.03;;;1.50;;
60869;SDS011;46710;43.680;4.132;2022-08-19T01:57:37;1.15;;;1.15;;
60869;SDS011;46710;43.680;4.132;2022-08-19T02:00:06;1.45;;;1.35;;
60869;SDS011;46710;43.680;4.132;2022-08-19T02:02:33;1.70;;;1.52;;
60869;SDS011;46710;43.680;4.132;2022-08-19T02:04:59;1.42;;;1.33;;
60869;SDS011;46710;43.680;4.132;2022-08-19T02:07:25;1.77;;;1.40;;
60869;SDS011;46710;43.680;4.132;2022-08-19T02:09:53;1.65;;;1.20;;
60869;SDS011;46710;43.680;4.132;2022-08-19T02:12:20;3.47;;;1.40;;
60869;SDS011;46710;43.680;4.132;2022-08-19T02:14:46;1.60;;;1.50;;
60869;SDS011;46710;43.680;4.132;2022-08-19T02:17:13;1.40;;;1.30;;
60869;SDS011;46710;43.680;4.132;2022-08-19T02:19:39;1.60;;;1.50;;
60869;SDS011;46710;43.680;4.132;2022-08-19T02:22:05;1.60;;;1.48;;
60869;SDS011;46710;43.680;4.132;2022-08-19T02:24:32;1.50;;;1.40;;
60869;SDS011;46710;43.680;4.132;2022-08-19T02:26:59;1.65;;;1.55;;
60869;SDS011;46710;43.680;4.132;2022-08-19T02:29:25;1.70;;;1.60;;
60869;SDS011;46710;43.680;4.132;2022-08-19T02:31:51;1.50;;;1.40;;
60869;SDS011;46710;43.680;4.132;2022-08-19T02:34:17;1.40;;;1.30;;
60869;SDS011;46710;43.680;4.132;2022-08-19T02:36:43;2.72;;;1.60;;
60869;SDS011;46710;43.680;4.132;2022-08-19T02:39:10;1.60;;;1.50;;
60869;SDS011;46710;43.680;4.132;2022-08-19T02:41:36;1.58;;;1.48;;
60869;SDS011;46710;43.680;4.132;2022-08-19T02:44:02;1.48;;;1.30;;
60869;SDS011;46710;43.680;4.132;2022-08-19T02:46:30;1.75;;;1.65;;
60869;SDS011;46710;43.680;4.132;2022-08-19T02:48:57;1.80;;;1.70;;
60869;SDS011;46710;43.680;4.132;2022-08-19T02:51:25;1.70;;;1.60;;
60869;SDS011;46710;43.680;4.132;2022-08-19T02:53:51;1.65;;;1.55;;
60869;SDS011;46710;43.680;4.132;2022-08-19T02:56:18;1.60;;;1.50;;
60869;SDS011;46710;43.680;4.132;2022-08-19T02:58:45;1.70;;;1.60;;
60869;SDS011;46710;43.680;4.132;2022-08-19T03:01:11;1.85;;;1.70;;
60869;SDS011;46710;43.680;4.132;2022-08-19T03:03:45;2.20;;;1.60;;
60869;SDS011;46710;43.680;4.132;2022-08-19T03:06:12;1.80;;;1.70;;
60869;SDS011;46710;43.680;4.132;2022-08-19T03:08:39;2.08;;;1.60;;
60869;SDS011;46710;43.680;4.132;2022-08-19T03:11:06;3.62;;;1.70;;
60869;SDS011;46710;43.680;4.132;2022-08-19T03:13:32;1.92;;;1.80;;
60869;SDS011;46710;43.680;4.132;2022-08-19T03:15:58;1.98;;;1.87;;
60869;SDS011;46710;43.680;4.132;2022-08-19T03:18:24;2.87;;;1.80;;
60869;SDS011;46710;43.680;4.132;2022-08-19T03:20:51;1.83;;;1.73;;
60869;SDS011;46710;43.680;4.132;2022-08-19T03:23:19;1.80;;;1.70;;
60869;SDS011;46710;43.680;4.132;2022-08-19T03:25:47;1.95;;;1.85;;
60869;SDS011;46710;43.680;4.132;2022-08-19T03:28:14;1.90;;;1.80;;
60869;SDS011;46710;43.680;4.132;2022-08-19T03:30:41;2.05;;;1.73;;
60869;SDS011;46710;43.680;4.132;2022-08-19T03:33:08;2.28;;;1.83;;
60869;SDS011;46710;43.680;4.132;2022-08-19T03:35:35;1.83;;;1.73;;
60869;SDS011;46710;43.680;4.132;2022-08-19T03:38:02;2.17;;;2.00;;
60869;SDS011;46710;43.680;4.132;2022-08-19T03:40:28;2.00;;;1.90;;
60869;SDS011;46710;43.680;4.132;2022-08-19T03:42:55;2.75;;;1.80;;
60869;SDS011;46710;43.680;4.132;2022-08-19T03:45:22;2.37;;;2.17;;
60869;SDS011;46710;43.680;4.132;2022-08-19T03:47:48;1.95;;;1.83;;
60869;SDS011;46710;43.680;4.132;2022-08-19T03:50:15;3.25;;;2.20;;
60869;SDS011;46710;43.680;4.132;2022-08-19T03:52:41;1.90;;;1.80;;
60869;SDS011;46710;43.680;4.132;2022-08-19T03:55:07;1.98;;;1.85;;
60869;SDS011;46710;43.680;4.132;2022-08-19T03:57:34;2.62;;;1.77;;
60869;SDS011;46710;43.680;4.132;2022-08-19T04:00:00;2.30;;;2.10;;
60869;SDS011;46710;43.680;4.132;2022-08-19T04:02:26;2.53;;;2.00;;
60869;SDS011;46710;43.680;4.132;2022-08-19T04:04:53;2.15;;;2.05;;
60869;SDS011;46710;43.680;4.132;2022-08-19T04:07:22;2.12;;;1.77;;
60869;SDS011;46710;43.680;4.132;2022-08-19T04:09:48;3.25;;;2.08;;
60869;SDS011;46710;43.680;4.132;2022-08-19T04:12:15;3.40;;;1.92;;
60869;SDS011;46710;43.680;4.132;2022-08-19T04:14:41;3.30;;;2.37;;
60869;SDS011;46710;43.680;4.132;2022-08-19T04:17:07;2.00;;;1.90;;
60869;SDS011;46710;43.680;4.132;2022-08-19T04:19:34;2.42;;;2.17;;
60869;SDS011;46710;43.680;4.132;2022-08-19T04:22:00;1.95;;;1.83;;
60869;SDS011;46710;43.680;4.132;2022-08-19T04:24:27;2.65;;;2.08;;
60869;SDS011;46710;43.680;4.132;2022-08-19T04:26:53;2.10;;;2.00;;
60869;SDS011;46710;43.680;4.132;2022-08-19T04:29:21;2.30;;;2.10;;
60869;SDS011;46710;43.680;4.132;2022-08-19T04:31:49;2.20;;;2.00;;
60869;SDS011;46710;43.680;4.132;2022-08-19T04:34:16;2.20;;;2.00;;
60869;SDS011;46710;43.680;4.132;2022-08-19T04:36:43;2.35;;;1.87;;
60869;SDS011;46710;43.680;4.132;2022-08-19T04:39:11;2.47;;;2.22;;
60869;SDS011;46710;43.680;4.132;2022-08-19T04:41:37;2.85;;;1.80;;
60869;SDS011;46710;43.680;4.132;2022-08-19T04:44:22;2.50;;;2.10;;
60869;SDS011;46710;43.680;4.132;2022-08-19T04:46:48;2.17;;;1.98;;
60869;SDS011;46710;43.680;4.132;2022-08-19T04:49:16;2.10;;;2.00;;
60869;SDS011;46710;43.680;4.132;2022-08-19T04:51:43;2.92;;;1.75;;
60869;SDS011;46710;43.680;4.132;2022-08-19T04:54:10;2.03;;;1.83;;
60869;SDS011;46710;43.680;4.132;2022-08-19T04:56:36;4.47;;;1.90;;
60869;SDS011;46710;43.680;4.132;2022-08-19T04:59:02;2.37;;;2.10;;
60869;SDS011;46710;43.680;4.132;2022-08-19T05:01:29;4.93;;;1.77;;
60869;SDS011;46710;43.680;4.132;2022-08-19T05:03:57;2.28;;;1.90;;
60869;SDS011;46710;43.680;4.132;2022-08-19T05:06:23;2.37;;;1.92;;
60869;SDS011;46710;43.680;4.132;2022-08-19T05:08:50;2.00;;;1.85;;
60869;SDS011;46710;43.680;4.132;2022-08-19T05:11:23;2.30;;;2.10;;
60869;SDS011;46710;43.680;4.132;2022-08-19T05:13:51;2.20;;;2.00;;
60869;SDS011;46710;43.680;4.132;2022-08-19T05:16:18;4.35;;;1.90;;
60869;SDS011;46710;43.680;4.132;2022-08-19T05:18:45;3.15;;;1.80;;
60869;SDS011;46710;43.680;4.132;2022-08-19T05:21:29;2.12;;;1.77;;
60869;SDS011;46710;43.680;4.132;2022-08-19T05:24:15;2.17;;;1.80;;
60869;SDS011;46710;43.680;4.132;2022-08-19T05:26:42;2.35;;;1.95;;
60869;SDS011;46710;43.680;4.132;2022-08-19T05:29:10;2.22;;;1.80;;
60869;SDS011;46710;43.680;4.132;2022-08-19T05:31:36;2.20;;;2.00;;
60869;SDS011;46710;43.680;4.132;2022-08-19T05:34:03;4.90;;;2.10;;
60869;SDS011;46710;43.680;4.132;2022-08-19T05:36:33;2.45;;;1.75;;
60869;SDS011;46710;43.680;4.132;2022-08-19T05:38:59;2.00;;;1.80;;
60869;SDS011;46710;43.680;4.132;2022-08-19T05:41:25;1.92;;;1.83;;
60869;SDS011;46710;43.680;4.132;2022-08-19T05:44:00;2.15;;;2.00;;
60869;SDS011;46710;43.680;4.132;2022-08-19T05:46:27;2.35;;;2.20;;
60869;SDS011;46710;43.680;4.132;2022-08-19T05:48:54;2.78;;;2.58;;
60869;SDS011;46710;43.680;4.132;2022-08-19T05:51:21;2.70;;;2.50;;
60869;SDS011;46710;43.680;4.132;2022-08-19T05:53:47;3.42;;;3.17;;
60869;SDS011;46710;43.680;4.132;2022-08-19T05:56:14;3.62;;;3.08;;
60869;SDS011;46710;43.680;4.132;2022-08-19T05:58:41;3.72;;;3.42;;
60869;SDS011;46710;43.680;4.132;2022-08-19T06:01:14;3.17;;;2.97;;
60869;SDS011;46710;43.680;4.132;2022-08-19T06:03:41;3.35;;;3.05;;
60869;SDS011;46710;43.680;4.132;2022-08-19T06:06:08;3.35;;;3.05;;
60869;SDS011;46710;43.680;4.132;2022-08-19T06:08:35;3.50;;;3.20;;
60869;SDS011;46710;43.680;4.132;2022-08-19T06:11:13;4.80;;;3.33;;
60869;SDS011;46710;43.680;4.132;2022-08-19T06:13:39;3.80;;;3.30;;
60869;SDS011;46710;43.680;4.132;2022-08-19T06:16:05;6.07;;;3.33;;
60869;SDS011;46710;43.680;4.132;2022-08-19T06:18:32;5.43;;;2.95;;
60869;SDS011;46710;43.680;4.132;2022-08-19T06:20:58;3.22;;;2.30;;
60869;SDS011;46710;43.680;4.132;2022-08-19T06:23:25;2.78;;;2.58;;
60869;SDS011;46710;43.680;4.132;2022-08-19T06:25:51;2.83;;;2.53;;
60869;SDS011;46710;43.680;4.132;2022-08-19T06:28:17;2.90;;;2.47;;
60869;SDS011;46710;43.680;4.132;2022-08-19T06:30:43;17.62;;;2.70;;
60869;SDS011;46710;43.680;4.132;2022-08-19T06:33:09;2.75;;;2.42;;
60869;SDS011;46710;43.680;4.132;2022-08-19T06:35:38;6.43;;;2.85;;
60869;SDS011;46710;43.680;4.132;2022-08-19T06:38:04;3.60;;;2.50;;
60869;SDS011;46710;43.680;4.132;2022-08-19T06:40:31;4.55;;;2.15;;
60869;SDS011;46710;43.680;4.132;2022-08-19T06:42:57;2.65;;;2.40;;
60869;SDS011;46710;43.680;4.132;2022-08-19T06:45:24;4.75;;;2.53;;
60869;SDS011;46710;43.680;4.132;2022-08-19T06:47:51;3.47;;;2.40;;
60869;SDS011;46710;43.680;4.132;2022-08-19T06:50:21;5.55;;;2.25;;
60869;SDS011;46710;43.680;4.132;2022-08-19T06:52:47;3.50;;;2.60;;
60869;SDS011;46710;43.680;4.132;2022-08-19T06:55:14;2.70;;;2.50;;
60869;SDS011;46710;43.680;4.132;2022-08-19T06:57:40;3.03;;;2.55;;
60869;SDS011;46710;43.680;4.132;2022-08-19T07:00:07;2.80;;;2.60;;
60869;SDS011;46710;43.680;4.132;2022-08-19T07:02:41;2.50;;;2.30;;
60869;SDS011;46710;43.680;4.132;2022-08-19T07:05:07;2.62;;;2.42;;
60869;SDS011;46710;43.680;4.132;2022-08-19T07:07:33;2.80;;;2.60;;
60869;SDS011;46710;43.680;4.132;2022-08-19T07:09:59;3.53;;;2.80;;
60869;SDS011;46710;43.680;4.132;2022-08-19T07:12:26;2.83;;;2.62;;
60869;SDS011;46710;43.680;4.132;2022-08-19T07:14:53;2.50;;;2.30;;
60869;SDS011;46710;43.680;4.132;2022-08-19T07:17:19;2.65;;;2.45;;
60869;SDS011;46710;43.680;4.132;2022-08-19T07:19:45;3.75;;;2.70;;
60869;SDS011;46710;43.680;4.132;2022-08-19T07:22:11;2.95;;;2.70;;
60869;SDS011;46710;43.680;4.132;2022-08-19T07:24:38;3.05;;;2.75;;
60869;SDS011;46710;43.680;4.132;2022-08-19T07:27:05;3.58;;;2.55;;
60869;SDS011;46710;43.680;4.132;2022-08-19T07:29:32;3.20;;;2.90;;
60869;SDS011;46710;43.680;4.132;2022-08-19T07:31:59;3.80;;;3.08;;
60869;SDS011;46710;43.680;4.132;2022-08-19T07:34:25;3.40;;;3.10;;
60869;SDS011;46710;43.680;4.132;2022-08-19T07:36:52;2.65;;;2.45;;
60869;SDS011;46710;43.680;4.132;2022-08-19T07:39:24;3.53;;;2.42;;
60869;SDS011;46710;43.680;4.132;2022-08-19T07:41:51;5.07;;;3.00;;
60869;SDS011;46710;43.680;4.132;2022-08-19T07:44:18;3.00;;;2.70;;
60869;SDS011;46710;43.680;4.132;2022-08-19T07:46:46;3.10;;;2.80;;
60869;SDS011;46710;43.680;4.132;2022-08-19T07:49:13;5.15;;;3.08;;
60869;SDS011;46710;43.680;4.132;2022-08-19T07:51:44;3.67;;;2.70;;
60869;SDS011;46710;43.680;4.132;2022-08-19T07:54:11;3.10;;;2.80;;
60869;SDS011;46710;43.680;4.132;2022-08-19T07:56:37;3.78;;;2.90;;
60869;SDS011;46710;43.680;4.132;2022-08-19T07:59:03;3.03;;;2.75;;
60869;SDS011;46710;43.680;4.132;2022-08-19T08:01:30;6.00;;;2.53;;
60869;SDS011;46710;43.680;4.132;2022-08-19T08:03:56;2.87;;;2.28;;
60869;SDS011;46710;43.680;4.132;2022-08-19T08:06:42;4.05;;;2.53;;
60869;SDS011;46710;43.680;4.132;2022-08-19T08:09:30;3.00;;;2.70;;
60869;SDS011;46710;43.680;4.132;2022-08-19T08:11:57;3.55;;;2.83;;
60869;SDS011;46710;43.680;4.132;2022-08-19T08:14:29;3.20;;;2.80;;
60869;SDS011;46710;43.680;4.132;2022-08-19T08:16:55;3.03;;;2.62;;
60869;SDS011;46710;43.680;4.132;2022-08-19T08:19:22;2.55;;;2.35;;
60869;SDS011;46710;43.680;4.132;2022-08-19T08:21:49;3.87;;;3.12;;
60869;SDS011;46710;43.680;4.132;2022-08-19T08:24:16;2.97;;;2.78;;
60869;SDS011;46710;43.680;4.132;2022-08-19T08:26:42;2.75;;;2.50;;
60869;SDS011;46710;43.680;4.132;2022-08-19T08:29:09;3.40;;;2.75;;
60869;SDS011;46710;43.680;4.132;2022-08-19T08:31:37;3.62;;;2.83;;
60869;SDS011;46710;43.680;4.132;2022-08-19T08:34:03;3.90;;;2.95;;
60869;SDS011;46710;43.680;4.132;2022-08-19T08:36:29;4.25;;;2.53;;
60869;SDS011;46710;43.680;4.132;2022-08-19T08:38:58;3.33;;;2.87;;
60869;SDS011;46710;43.680;4.132;2022-08-19T08:43:54;4.05;;;2.50;;
60869;SDS011;46710;43.680;4.132;2022-08-19T08:51:58;3.60;;;2.95;;
60869;SDS011;46710;43.680;4.132;2022-08-19T08:54:20;4.62;;;3.10;;
60869;SDS011;46710;43.680;4.132;2022-08-19T08:56:49;4.43;;;2.80;;
60869;SDS011;46710;43.680;4.132;2022-08-19T08:59:17;7.07;;;3.12;;
60869;SDS011;46710;43.680;4.132;2022-08-19T09:01:46;3.85;;;2.80;;
60869;SDS011;46710;43.680;4.132;2022-08-19T09:04:13;4.03;;;3.05;;
60869;SDS011;46710;43.680;4.132;2022-08-19T09:11:49;3.45;;;2.95;;
60869;SDS011;46710;43.680;4.132;2022-08-19T09:14:32;3.12;;;2.92;;
60869;SDS011;46710;43.680;4.132;2022-08-19T09:16:58;3.10;;;2.90;;
60869;SDS011;46710;43.680;4.132;2022-08-19T09:19:25;3.05;;;2.85;;
60869;SDS011;46710;43.680;4.132;2022-08-19T09:21:51;3.95;;;2.92;;
60869;SDS011;46710;43.680;4.132;2022-08-19T09:24:17;4.85;;;3.35;;
60869;SDS011;46710;43.680;4.132;2022-08-19T09:26:43;3.30;;;3.00;;
60869;SDS011;46710;43.680;4.132;2022-08-19T09:29:10;4.12;;;3.05;;
60869;SDS011;46710;43.680;4.132;2022-08-19T09:31:36;3.90;;;3.30;;
60869;SDS011;46710;43.680;4.132;2022-08-19T09:34:02;4.20;;;3.70;;
60869;SDS011;46710;43.680;4.132;2022-08-19T09:36:29;4.05;;;3.65;;
60869;SDS011;46710;43.680;4.132;2022-08-19T09:39:01;3.83;;;3.43;;
60869;SDS011;46710;43.680;4.132;2022-08-19T09:41:27;5.25;;;3.45;;
60869;SDS011;46710;43.680;4.132;2022-08-19T09:43:54;3.30;;;3.00;;
60869;SDS011;46710;43.680;4.132;2022-08-19T09:46:21;3.58;;;3.28;;
60869;SDS011;46710;43.680;4.132;2022-08-19T09:48:48;5.47;;;3.45;;
60869;SDS011;46710;43.680;4.132;2022-08-19T09:51:19;3.65;;;3.35;;
60869;SDS011;46710;43.680;4.132;2022-08-19T09:53:47;4.07;;;3.67;;
60869;SDS011;46710;43.680;4.132;2022-08-19T09:56:15;4.93;;;3.80;;
60869;SDS011;46710;43.680;4.132;2022-08-19T09:58:42;3.47;;;3.17;;
60869;SDS011;46710;43.680;4.132;2022-08-19T10:01:08;4.18;;;3.30;;
60869;SDS011;46710;43.680;4.132;2022-08-19T10:03:34;3.72;;;2.90;;
60869;SDS011;46710;43.680;4.132;2022-08-19T10:06:03;6.07;;;3.30;;
60869;SDS011;46710;43.680;4.132;2022-08-19T10:08:31;5.95;;;3.62;;
60869;SDS011;46710;43.680;4.132;2022-08-19T10:10:58;4.20;;;3.30;;
60869;SDS011;46710;43.680;4.132;2022-08-19T10:13:26;4.12;;;3.65;;
60869;SDS011;46710;43.680;4.132;2022-08-19T10:15:54;4.53;;;3.67;;
60869;SDS011;46710;43.680;4.132;2022-08-19T10:18:22;4.03;;;3.62;;
60869;SDS011;46710;43.680;4.132;2022-08-19T10:20:49;6.57;;;3.45;;
60869;SDS011;46710;43.680;4.132;2022-08-19T10:23:16;4.47;;;4.07;;
60869;SDS011;46710;43.680;4.132;2022-08-19T10:25:42;3.37;;;3.10;;
60869;SDS011;46710;43.680;4.132;2022-08-19T10:28:09;3.33;;;3.12;;
60869;SDS011;46710;43.680;4.132;2022-08-19T10:30:37;3.97;;;3.37;;
60869;SDS011;46710;43.680;4.132;2022-08-19T10:33:04;5.55;;;3.40;;
60869;SDS011;46710;43.680;4.132;2022-08-19T10:35:30;5.35;;;3.35;;
60869;SDS011;46710;43.680;4.132;2022-08-19T10:37:56;3.60;;;3.25;;
60869;SDS011;46710;43.680;4.132;2022-08-19T10:40:24;3.65;;;3.35;;
60869;SDS011;46710;43.680;4.132;2022-08-19T10:42:51;3.42;;;3.12;;
60869;SDS011;46710;43.680;4.132;2022-08-19T10:45:17;4.37;;;3.35;;
60869;SDS011;46710;43.680;4.132;2022-08-19T10:47:43;4.10;;;3.40;;
60869;SDS011;46710;43.680;4.132;2022-08-19T10:50:09;3.70;;;3.40;;
60869;SDS011;46710;43.680;4.132;2022-08-19T10:52:54;3.50;;;3.20;;
60869;SDS011;46710;43.680;4.132;2022-08-19T10:55:21;3.70;;;3.40;;
60869;SDS011;46710;43.680;4.132;2022-08-19T10:58:11;5.07;;;3.10;;
60869;SDS011;46710;43.680;4.132;2022-08-19T11:00:38;3.97;;;3.57;;
60869;SDS011;46710;43.680;4.132;2022-08-19T11:03:05;3.58;;;3.28;;
60869;SDS011;46710;43.680;4.132;2022-08-19T11:05:31;4.55;;;3.30;;
60869;SDS011;46710;43.680;4.132;2022-08-19T11:07:58;4.15;;;3.42;;
60869;SDS011;46710;43.680;4.132;2022-08-19T11:10:24;4.15;;;3.17;;
60869;SDS011;46710;43.680;4.132;2022-08-19T11:12:50;3.65;;;3.30;;
60869;SDS011;46710;43.680;4.132;2022-08-19T11:15:19;4.00;;;3.50;;
60869;SDS011;46710;43.680;4.132;2022-08-19T11:17:45;3.95;;;3.65;;
60869;SDS011;46710;43.680;4.132;2022-08-19T11:20:12;3.90;;;3.55;;
60869;SDS011;46710;43.680;4.132;2022-08-19T11:22:39;5.57;;;3.47;;
60869;SDS011;46710;43.680;4.132;2022-08-19T11:25:06;3.80;;;3.50;;
60869;SDS011;46710;43.680;4.132;2022-08-19T11:27:32;5.07;;;3.22;;
60869;SDS011;46710;43.680;4.132;2022-08-19T11:29:59;3.95;;;3.55;;
60869;SDS011;46710;43.680;4.132;2022-08-19T11:32:25;3.65;;;3.35;;
60869;SDS011;46710;43.680;4.132;2022-08-19T11:34:51;5.68;;;3.47;;
60869;SDS011;46710;43.680;4.132;2022-08-19T11:37:18;4.15;;;3.70;;
60869;SDS011;46710;43.680;4.132;2022-08-19T11:39:44;3.90;;;3.50;;
60869;SDS011;46710;43.680;4.132;2022-08-19T11:42:10;3.45;;;3.22;;
60869;SDS011;46710;43.680;4.132;2022-08-19T11:44:55;3.45;;;3.15;;
60869;SDS011;46710;43.680;4.132;2022-08-19T11:47:21;3.83;;;3.50;;
60869;SDS011;46710;43.680;4.132;2022-08-19T11:49:48;3.40;;;3.12;;
60869;SDS011;46710;43.680;4.132;2022-08-19T11:52:14;3.80;;;3.50;;
60869;SDS011;46710;43.680;4.132;2022-08-19T11:54:40;3.67;;;3.40;;
60869;SDS011;46710;43.680;4.132;2022-08-19T11:57:06;3.70;;;3.33;;
60869;SDS011;46710;43.680;4.132;2022-08-19T11:59:32;3.50;;;3.12;;
60869;SDS011;46710;43.680;4.132;2022-08-19T12:01:58;3.40;;;3.10;;
60869;SDS011;46710;43.680;4.132;2022-08-19T12:04:25;6.12;;;3.53;;
60869;SDS011;46710;43.680;4.132;2022-08-19T12:06:51;4.10;;;3.60;;
60869;SDS011;46710;43.680;4.132;2022-08-19T12:09:18;3.50;;;3.25;;
60869;SDS011;46710;43.680;4.132;2022-08-19T12:11:44;3.45;;;3.15;;
60869;SDS011;46710;43.680;4.132;2022-08-19T12:14:11;3.80;;;3.40;;
60869;SDS011;46710;43.680;4.132;2022-08-19T12:16:38;3.62;;;3.30;;
60869;SDS011;46710;43.680;4.132;2022-08-19T12:19:04;3.58;;;3.28;;
60869;SDS011;46710;43.680;4.132;2022-08-19T12:21:31;3.70;;;3.28;;
60869;SDS011;46710;43.680;4.132;2022-08-19T12:23:58;3.40;;;3.00;;
60869;SDS011;46710;43.680;4.132;2022-08-19T12:26:25;3.53;;;3.22;;
60869;SDS011;46710;43.680;4.132;2022-08-19T12:28:52;5.07;;;3.58;;
60869;SDS011;46710;43.680;4.132;2022-08-19T12:31:18;3.80;;;3.47;;
60869;SDS011;46710;43.680;4.132;2022-08-19T12:33:45;3.70;;;3.25;;
60869;SDS011;46710;43.680;4.132;2022-08-19T12:36:12;3.17;;;2.87;;
60869;SDS011;46710;43.680;4.132;2022-08-19T12:38:39;4.53;;;3.08;;
60869;SDS011;46710;43.680;4.132;2022-08-19T12:41:08;3.37;;;2.87;;
60869;SDS011;46710;43.680;4.132;2022-08-19T12:43:35;5.37;;;3.00;;
60869;SDS011;46710;43.680;4.132;2022-08-19T12:46:01;2.90;;;2.70;;
60869;SDS011;46710;43.680;4.132;2022-08-19T12:48:29;3.35;;;2.80;;
60869;SDS011;46710;43.680;4.132;2022-08-19T12:50:55;3.50;;;3.20;;
60869;SDS011;46710;43.680;4.132;2022-08-19T12:53:21;3.45;;;3.15;;
60869;SDS011;46710;43.680;4.132;2022-08-19T12:55:54;3.30;;;3.05;;
60869;SDS011;46710;43.680;4.132;2022-08-19T12:58:21;3.40;;;3.10;;
60869;SDS011;46710;43.680;4.132;2022-08-19T13:00:48;3.15;;;2.85;;
60869;SDS011;46710;43.680;4.132;2022-08-19T13:03:14;3.17;;;2.83;;
60869;SDS011;46710;43.680;4.132;2022-08-19T13:05:40;4.57;;;3.20;;
60869;SDS011;46710;43.680;4.132;2022-08-19T13:08:07;2.95;;;2.75;;
60869;SDS011;46710;43.680;4.132;2022-08-19T13:10:34;3.08;;;2.85;;
60869;SDS011;46710;43.680;4.132;2022-08-19T13:13:01;3.05;;;2.85;;
60869;SDS011;46710;43.680;4.132;2022-08-19T13:15:28;3.40;;;2.65;;
60869;SDS011;46710;43.680;4.132;2022-08-19T13:17:56;3.87;;;2.58;;
60869;SDS011;46710;43.680;4.132;2022-08-19T13:20:23;5.80;;;3.00;;
60869;SDS011;46710;43.680;4.132;2022-08-19T13:22:49;3.97;;;2.60;;
60869;SDS011;46710;43.680;4.132;2022-08-19T13:25:16;3.15;;;2.60;;
60869;SDS011;46710;43.680;4.132;2022-08-19T13:27:44;4.55;;;2.90;;
60869;SDS011;46710;43.680;4.132;2022-08-19T13:30:11;2.87;;;2.67;;
60869;SDS011;46710;43.680;4.132;2022-08-19T13:32:56;3.42;;;2.62;;
60869;SDS011;46710;43.680;4.132;2022-08-19T13:35:45;3.03;;;2.72;;
60869;SDS011;46710;43.680;4.132;2022-08-19T13:38:12;2.75;;;2.55;;
60869;SDS011;46710;43.680;4.132;2022-08-19T13:40:39;2.80;;;2.55;;
60869;SDS011;46710;43.680;4.132;2022-08-19T13:43:06;2.75;;;2.55;;
60869;SDS011;46710;43.680;4.132;2022-08-19T13:45:33;3.97;;;2.60;;
60869;SDS011;46710;43.680;4.132;2022-08-19T13:47:59;2.83;;;2.50;;
60869;SDS011;46710;43.680;4.132;2022-08-19T13:50:28;3.05;;;2.78;;
60869;SDS011;46710;43.680;4.132;2022-08-19T13:52:56;6.43;;;2.33;;
60869;SDS011;46710;43.680;4.132;2022-08-19T13:55:22;2.42;;;2.22;;
60869;SDS011;46710;43.680;4.132;2022-08-19T13:57:52;2.55;;;2.35;;
60869;SDS011;46710;43.680;4.132;2022-08-19T14:00:19;3.92;;;2.65;;
60869;SDS011;46710;43.680;4.132;2022-08-19T14:02:46;4.82;;;2.45;;
60869;SDS011;46710;43.680;4.132;2022-08-19T14:05:13;2.53;;;2.33;;
60869;SDS011;46710;43.680;4.132;2022-08-19T14:07:40;3.60;;;2.10;;
60869;SDS011;46710;43.680;4.132;2022-08-19T14:10:07;2.00;;;1.90;;
60869;SDS011;46710;43.680;4.132;2022-08-19T14:12:33;2.50;;;2.30;;
60869;SDS011;46710;43.680;4.132;2022-08-19T14:14:59;2.60;;;2.40;;
60869;SDS011;46710;43.680;4.132;2022-08-19T14:17:27;3.47;;;2.35;;
60869;SDS011;46710;43.680;4.132;2022-08-19T14:19:57;2.78;;;2.58;;
60869;SDS011;46710;43.680;4.132;2022-08-19T14:22:25;3.30;;;2.62;;
60869;SDS011;46710;43.680;4.132;2022-08-19T14:24:51;2.33;;;2.17;;
60869;SDS011;46710;43.680;4.132;2022-08-19T14:27:17;2.70;;;2.50;;
60869;SDS011;46710;43.680;4.132;2022-08-19T14:29:43;2.60;;;2.40;;
60869;SDS011;46710;43.680;4.132;2022-08-19T14:32:10;3.55;;;2.20;;
60869;SDS011;46710;43.680;4.132;2022-08-19T14:34:37;3.15;;;2.42;;
60869;SDS011;46710;43.680;4.132;2022-08-19T14:37:03;2.40;;;2.20;;
60869;SDS011;46710;43.680;4.132;2022-08-19T14:39:31;2.30;;;2.10;;
60869;SDS011;46710;43.680;4.132;2022-08-19T14:41:57;2.53;;;2.30;;
60869;SDS011;46710;43.680;4.132;2022-08-19T14:44:24;2.37;;;2.20;;
60869;SDS011;46710;43.680;4.132;2022-08-19T14:46:50;2.47;;;2.28;;
60869;SDS011;46710;43.680;4.132;2022-08-19T14:49:17;2.70;;;2.30;;
60869;SDS011;46710;43.680;4.132;2022-08-19T14:51:43;2.67;;;2.47;;
60869;SDS011;46710;43.680;4.132;2022-08-19T14:54:11;2.45;;;2.22;;
60869;SDS011;46710;43.680;4.132;2022-08-19T14:56:38;2.50;;;2.22;;
60869;SDS011;46710;43.680;4.132;2022-08-19T14:59:06;2.53;;;2.33;;
60869;SDS011;46710;43.680;4.132;2022-08-19T15:01:32;2.70;;;2.10;;
60869;SDS011;46710;43.680;4.132;2022-08-19T15:03:58;2.42;;;2.12;;